Laguna Niguel, CA

5:52 AM PST on December 25, 2014 (GMT -0800)
Oceanside Mcolf Camp Pendleto | Change Station
CLOSE
Current Station
Airport
Location: Oceanside Mcolf Camp Pendleto,
Elevation: 89 ft
Nearby Weather Stations
Active Advisory: Wind Advisory

Elev 89 ft 33.29 °N, 117.46 °W | Updated 56 minutes ago

Overcast
Overcast
59 °F
Feels Like 59 °F
N
8
Wind Variable Wind from WNW

Today
High -- | Low -- °F
--% Chance of Precip.
Yesterday
High -- | Low -- °F
Precip. -- in
6:52 AM 4:49 PM
Waxing Crescent, 16% visible
Pressure 30.04 in
Visibility 7.0 miles
Clouds Overcast 3100 ft
Dew Point 50 °F
Humidity 72%
Rainfall 0.00 in
Snow Depth Not available.
UV 0 out of 12
Pollen 6.00 out of 12
Air Quality Not available.
Flu Activity Not available.
METAR KNXF 251256Z AUTO 30007KT 7SM OVC031 15/10 A2979 RMK AO2 SLP173 T01500100 $

More Conditions Fewer Conditions

Pressure 30.04 in
Visibility 7.0 miles
Clouds Overcast 3100 ft
Dew Point 50 °F
Humidity 72%
Rainfall 0.00 in
Snow Depth Not available.
UV 0 out of 12
Pollen 6.00 out of 12
Air Quality Not available.
Flu Activity Not available.
METAR KNXF 251256Z AUTO 30007KT 7SM OVC031 15/10 A2979 RMK AO2 SLP173 T01500100 $

More Conditions Fewer Conditions

10-Day Weather Forecast

Almanac

Astronomy

Dec. 25, 2014 Rise Set
Actual Time
Civil Twilight
Nautical Twilight
Astronomical Twilight
Moon
Length of Visible Light
Length of Day
Tomorrow will be .
, % of the Moon is Illuminated

Today's Extremes

State Highs State Lows

Community

WunderPhotos

Upload Photos

1,780,275 photos uploaded!

WunderBlogs® & News

Nearby

Air Quality

  Air Quality AQ Index Pollutant
Not available.

Snow Depth

Station Depth Elevation

Earthquake Activity

City Distance Mag. Time & Date
Minimum magnitude displayed is 2.5.

Coastal Water Temperatures

Place Temperature

Nearby Weather Stations